sensor_id;sensor_type;location;lat;lon;timestamp;temperature;humidity
16198;DHT22;8206;51.440;6.914;2023-05-27T00:00:28;10.30;1.00
16198;DHT22;8206;51.440;6.914;2023-05-27T00:02:57;10.30;1.00
16198;DHT22;8206;51.440;6.914;2023-05-27T00:05:25;10.30;1.00
16198;DHT22;8206;51.440;6.914;2023-05-27T00:07:52;10.30;1.00
16198;DHT22;8206;51.440;6.914;2023-05-27T00:10:18;10.20;1.00
16198;DHT22;8206;51.440;6.914;2023-05-27T00:12:46;10.20;1.00
16198;DHT22;8206;51.440;6.914;2023-05-27T00:15:13;10.20;1.00
16198;DHT22;8206;51.440;6.914;2023-05-27T00:17:40;10.10;1.00
16198;DHT22;8206;51.440;6.914;2023-05-27T00:20:08;10.10;1.00
16198;DHT22;8206;51.440;6.914;2023-05-27T00:22:35;10.00;1.00
16198;DHT22;8206;51.440;6.914;2023-05-27T00:25:02;10.00;1.00
16198;DHT22;8206;51.440;6.914;2023-05-27T00:27:29;10.00;1.00
16198;DHT22;8206;51.440;6.914;2023-05-27T00:29:57;10.00;1.00
16198;DHT22;8206;51.440;6.914;2023-05-27T00:32:24;9.90;1.00
16198;DHT22;8206;51.440;6.914;2023-05-27T00:34:51;9.90;1.00
16198;DHT22;8206;51.440;6.914;2023-05-27T00:37:17;9.90;1.00
16198;DHT22;8206;51.440;6.914;2023-05-27T00:39:44;9.90;1.00
16198;DHT22;8206;51.440;6.914;2023-05-27T00:42:11;9.80;1.00
16198;DHT22;8206;51.440;6.914;2023-05-27T00:44:39;9.80;1.00
16198;DHT22;8206;51.440;6.914;2023-05-27T00:47:07;9.80;1.00
16198;DHT22;8206;51.440;6.914;2023-05-27T00:49:34;9.70;1.00
16198;DHT22;8206;51.440;6.914;2023-05-27T00:52:01;9.70;1.00
16198;DHT22;8206;51.440;6.914;2023-05-27T00:54:29;9.70;1.00
16198;DHT22;8206;51.440;6.914;2023-05-27T00:56:57;9.70;1.00
16198;DHT22;8206;51.440;6.914;2023-05-27T00:59:23;9.70;1.00
16198;DHT22;8206;51.440;6.914;2023-05-27T01:01:51;9.60;1.00
16198;DHT22;8206;51.440;6.914;2023-05-27T01:04:19;9.60;1.00
16198;DHT22;8206;51.440;6.914;2023-05-27T01:06:56;9.60;1.00
16198;DHT22;8206;51.440;6.914;2023-05-27T01:09:30;9.50;1.00
16198;DHT22;8206;51.440;6.914;2023-05-27T01:12:02;9.40;1.00
16198;DHT22;8206;51.440;6.914;2023-05-27T01:14:31;9.40;1.00
16198;DHT22;8206;51.440;6.914;2023-05-27T01:17:01;9.40;1.00
16198;DHT22;8206;51.440;6.914;2023-05-27T01:19:34;9.40;1.00
16198;DHT22;8206;51.440;6.914;2023-05-27T01:22:02;9.40;1.00
16198;DHT22;8206;51.440;6.914;2023-05-27T01:24:31;9.30;1.00
16198;DHT22;8206;51.440;6.914;2023-05-27T01:26:59;9.30;1.00
16198;DHT22;8206;51.440;6.914;2023-05-27T01:29:28;9.20;1.00
16198;DHT22;8206;51.440;6.914;2023-05-27T01:32:00;9.20;1.00
16198;DHT22;8206;51.440;6.914;2023-05-27T01:34:36;9.20;1.00
16198;DHT22;8206;51.440;6.914;2023-05-27T01:37:07;9.20;1.00
16198;DHT22;8206;51.440;6.914;2023-05-27T01:39:37;9.10;1.00
16198;DHT22;8206;51.440;6.914;2023-05-27T01:42:06;9.00;1.00
16198;DHT22;8206;51.440;6.914;2023-05-27T01:44:33;9.00;1.00
16198;DHT22;8206;51.440;6.914;2023-05-27T01:47:01;8.90;1.00
16198;DHT22;8206;51.440;6.914;2023-05-27T01:49:29;8.90;1.00
16198;DHT22;8206;51.440;6.914;2023-05-27T01:51:56;8.90;1.00
16198;DHT22;8206;51.440;6.914;2023-05-27T01:54:23;8.90;1.00
16198;DHT22;8206;51.440;6.914;2023-05-27T01:56:51;8.80;1.00
16198;DHT22;8206;51.440;6.914;2023-05-27T01:59:18;8.80;1.00
16198;DHT22;8206;51.440;6.914;2023-05-27T02:01:44;8.70;1.00
16198;DHT22;8206;51.440;6.914;2023-05-27T02:04:11;8.70;1.00
16198;DHT22;8206;51.440;6.914;2023-05-27T02:06:37;8.70;1.00
16198;DHT22;8206;51.440;6.914;2023-05-27T02:09:04;8.60;1.00
16198;DHT22;8206;51.440;6.914;2023-05-27T02:11:31;8.60;1.00
16198;DHT22;8206;51.440;6.914;2023-05-27T02:13:59;8.60;1.00
16198;DHT22;8206;51.440;6.914;2023-05-27T02:16:26;8.50;1.00
16198;DHT22;8206;51.440;6.914;2023-05-27T02:18:53;8.50;1.00
16198;DHT22;8206;51.440;6.914;2023-05-27T02:21:20;8.50;1.00
16198;DHT22;8206;51.440;6.914;2023-05-27T02:23:47;8.50;1.00
16198;DHT22;8206;51.440;6.914;2023-05-27T02:26:13;8.50;1.00
16198;DHT22;8206;51.440;6.914;2023-05-27T02:28:40;8.50;1.00
16198;DHT22;8206;51.440;6.914;2023-05-27T02:31:09;8.50;1.00
16198;DHT22;8206;51.440;6.914;2023-05-27T02:33:36;8.40;1.00
16198;DHT22;8206;51.440;6.914;2023-05-27T02:36:03;8.30;1.00
16198;DHT22;8206;51.440;6.914;2023-05-27T02:38:29;8.30;1.00
16198;DHT22;8206;51.440;6.914;2023-05-27T02:40:56;8.30;1.00
16198;DHT22;8206;51.440;6.914;2023-05-27T02:43:23;8.30;1.00
16198;DHT22;8206;51.440;6.914;2023-05-27T02:45:50;8.20;1.00
16198;DHT22;8206;51.440;6.914;2023-05-27T02:48:18;8.20;1.00
16198;DHT22;8206;51.440;6.914;2023-05-27T02:50:45;8.20;1.00
16198;DHT22;8206;51.440;6.914;2023-05-27T02:53:11;8.10;1.00
16198;DHT22;8206;51.440;6.914;2023-05-27T02:55:38;8.10;1.00
16198;DHT22;8206;51.440;6.914;2023-05-27T02:58:05;8.10;1.00
16198;DHT22;8206;51.440;6.914;2023-05-27T03:00:32;8.10;1.00
16198;DHT22;8206;51.440;6.914;2023-05-27T03:03:00;8.00;1.00
16198;DHT22;8206;51.440;6.914;2023-05-27T03:05:30;8.00;1.00
16198;DHT22;8206;51.440;6.914;2023-05-27T03:07:57;8.10;1.00
16198;DHT22;8206;51.440;6.914;2023-05-27T03:10:24;8.10;1.00
16198;DHT22;8206;51.440;6.914;2023-05-27T03:12:53;8.10;1.00
16198;DHT22;8206;51.440;6.914;2023-05-27T03:15:19;8.10;1.00
16198;DHT22;8206;51.440;6.914;2023-05-27T03:17:47;8.10;1.00
16198;DHT22;8206;51.440;6.914;2023-05-27T03:20:13;8.10;1.00
16198;DHT22;8206;51.440;6.914;2023-05-27T03:22:43;8.00;1.00
16198;DHT22;8206;51.440;6.914;2023-05-27T03:25:09;8.00;1.00
16198;DHT22;8206;51.440;6.914;2023-05-27T03:27:36;8.00;1.00
16198;DHT22;8206;51.440;6.914;2023-05-27T03:30:05;8.00;1.00
16198;DHT22;8206;51.440;6.914;2023-05-27T03:32:31;8.00;1.00
16198;DHT22;8206;51.440;6.914;2023-05-27T03:34:58;8.00;1.00
16198;DHT22;8206;51.440;6.914;2023-05-27T03:37:25;8.00;1.00
16198;DHT22;8206;51.440;6.914;2023-05-27T03:39:53;8.00;1.00
16198;DHT22;8206;51.440;6.914;2023-05-27T03:42:20;8.00;1.00
16198;DHT22;8206;51.440;6.914;2023-05-27T03:44:47;8.00;1.00
16198;DHT22;8206;51.440;6.914;2023-05-27T03:47:14;8.10;1.00
16198;DHT22;8206;51.440;6.914;2023-05-27T03:49:42;8.10;1.00
16198;DHT22;8206;51.440;6.914;2023-05-27T03:52:09;8.10;1.00
16198;DHT22;8206;51.440;6.914;2023-05-27T03:54:36;8.20;1.00
16198;DHT22;8206;51.440;6.914;2023-05-27T03:57:04;8.30;1.00
16198;DHT22;8206;51.440;6.914;2023-05-27T03:59:32;8.40;1.00
16198;DHT22;8206;51.440;6.914;2023-05-27T04:01:59;8.40;1.00
16198;DHT22;8206;51.440;6.914;2023-05-27T04:04:26;8.50;1.00
16198;DHT22;8206;51.440;6.914;2023-05-27T04:06:52;8.70;1.00
16198;DHT22;8206;51.440;6.914;2023-05-27T04:09:20;8.80;1.00
16198;DHT22;8206;51.440;6.914;2023-05-27T04:11:47;8.90;1.00
16198;DHT22;8206;51.440;6.914;2023-05-27T04:14:15;9.10;1.00
16198;DHT22;8206;51.440;6.914;2023-05-27T04:16:42;9.30;1.00
16198;DHT22;8206;51.440;6.914;2023-05-27T04:19:09;9.40;1.00
16198;DHT22;8206;51.440;6.914;2023-05-27T04:21:35;9.70;1.00
16198;DHT22;8206;51.440;6.914;2023-05-27T04:24:03;9.80;1.00
16198;DHT22;8206;51.440;6.914;2023-05-27T04:26:29;10.00;1.00
16198;DHT22;8206;51.440;6.914;2023-05-27T04:28:56;10.20;1.00
16198;DHT22;8206;51.440;6.914;2023-05-27T04:31:26;10.40;1.00
16198;DHT22;8206;51.440;6.914;2023-05-27T04:33:54;10.60;1.00
16198;DHT22;8206;51.440;6.914;2023-05-27T04:36:21;10.90;1.00
16198;DHT22;8206;51.440;6.914;2023-05-27T04:38:50;11.20;1.00
16198;DHT22;8206;51.440;6.914;2023-05-27T04:41:17;11.50;1.00
16198;DHT22;8206;51.440;6.914;2023-05-27T04:43:46;11.50;1.00
16198;DHT22;8206;51.440;6.914;2023-05-27T04:46:13;11.60;1.00
16198;DHT22;8206;51.440;6.914;2023-05-27T04:48:41;11.70;1.00
16198;DHT22;8206;51.440;6.914;2023-05-27T04:51:10;11.90;1.00
16198;DHT22;8206;51.440;6.914;2023-05-27T04:53:36;12.20;1.00
16198;DHT22;8206;51.440;6.914;2023-05-27T04:56:03;12.50;1.00
16198;DHT22;8206;51.440;6.914;2023-05-27T04:58:30;12.60;1.00
16198;DHT22;8206;51.440;6.914;2023-05-27T05:00:56;12.70;1.00
16198;DHT22;8206;51.440;6.914;2023-05-27T05:03:23;12.90;1.00
16198;DHT22;8206;51.440;6.914;2023-05-27T05:06:04;13.10;1.00
16198;DHT22;8206;51.440;6.914;2023-05-27T05:08:30;13.10;1.00
16198;DHT22;8206;51.440;6.914;2023-05-27T05:10:57;13.30;1.00
16198;DHT22;8206;51.440;6.914;2023-05-27T05:13:24;13.60;1.00
16198;DHT22;8206;51.440;6.914;2023-05-27T05:15:54;13.90;1.00
16198;DHT22;8206;51.440;6.914;2023-05-27T05:18:21;14.10;1.00
16198;DHT22;8206;51.440;6.914;2023-05-27T05:20:47;14.40;1.00
16198;DHT22;8206;51.440;6.914;2023-05-27T05:23:16;14.60;1.00
16198;DHT22;8206;51.440;6.914;2023-05-27T05:25:43;14.70;1.00
16198;DHT22;8206;51.440;6.914;2023-05-27T05:28:10;14.90;1.00
16198;DHT22;8206;51.440;6.914;2023-05-27T05:30:37;15.00;1.00
16198;DHT22;8206;51.440;6.914;2023-05-27T05:33:04;15.30;1.00
16198;DHT22;8206;51.440;6.914;2023-05-27T05:35:31;15.60;1.00
16198;DHT22;8206;51.440;6.914;2023-05-27T05:37:57;15.50;1.00
16198;DHT22;8206;51.440;6.914;2023-05-27T05:40:25;15.30;1.00
16198;DHT22;8206;51.440;6.914;2023-05-27T05:42:52;15.20;1.00
16198;DHT22;8206;51.440;6.914;2023-05-27T05:45:19;15.70;1.00
16198;DHT22;8206;51.440;6.914;2023-05-27T05:47:45;16.20;1.00
16198;DHT22;8206;51.440;6.914;2023-05-27T05:50:12;16.80;1.00
16198;DHT22;8206;51.440;6.914;2023-05-27T05:52:39;17.20;1.00
16198;DHT22;8206;51.440;6.914;2023-05-27T05:55:06;17.10;1.00
16198;DHT22;8206;51.440;6.914;2023-05-27T05:57:34;17.00;1.00
16198;DHT22;8206;51.440;6.914;2023-05-27T06:00:01;17.20;1.00
16198;DHT22;8206;51.440;6.914;2023-05-27T06:02:28;17.50;1.00
16198;DHT22;8206;51.440;6.914;2023-05-27T06:04:55;17.70;1.00
16198;DHT22;8206;51.440;6.914;2023-05-27T06:07:22;17.70;1.00
16198;DHT22;8206;51.440;6.914;2023-05-27T06:09:48;18.00;1.00
16198;DHT22;8206;51.440;6.914;2023-05-27T06:12:15;18.40;99.90
16198;DHT22;8206;51.440;6.914;2023-05-27T06:14:43;18.50;99.90
16198;DHT22;8206;51.440;6.914;2023-05-27T06:17:10;18.30;99.90
16198;DHT22;8206;51.440;6.914;2023-05-27T06:19:36;18.80;99.90
16198;DHT22;8206;51.440;6.914;2023-05-27T06:22:03;20.00;99.90
16198;DHT22;8206;51.440;6.914;2023-05-27T06:24:31;20.20;99.90
16198;DHT22;8206;51.440;6.914;2023-05-27T06:26:57;20.20;99.90
16198;DHT22;8206;51.440;6.914;2023-05-27T06:29:24;20.50;99.90
16198;DHT22;8206;51.440;6.914;2023-05-27T06:31:52;20.50;99.90
16198;DHT22;8206;51.440;6.914;2023-05-27T06:34:20;20.30;99.90
16198;DHT22;8206;51.440;6.914;2023-05-27T06:36:46;20.10;99.90
16198;DHT22;8206;51.440;6.914;2023-05-27T06:39:14;19.90;99.90
16198;DHT22;8206;51.440;6.914;2023-05-27T06:41:41;20.40;99.90
16198;DHT22;8206;51.440;6.914;2023-05-27T06:44:07;20.00;99.90
16198;DHT22;8206;51.440;6.914;2023-05-27T06:46:34;20.10;99.90
16198;DHT22;8206;51.440;6.914;2023-05-27T06:49:02;20.60;99.90
16198;DHT22;8206;51.440;6.914;2023-05-27T06:51:29;20.20;99.90
16198;DHT22;8206;51.440;6.914;2023-05-27T06:53:56;20.10;99.90
16198;DHT22;8206;51.440;6.914;2023-05-27T06:56:23;20.50;99.90
16198;DHT22;8206;51.440;6.914;2023-05-27T06:58:50;20.40;99.90
16198;DHT22;8206;51.440;6.914;2023-05-27T07:01:16;20.70;99.90
16198;DHT22;8206;51.440;6.914;2023-05-27T07:03:43;20.60;99.90
16198;DHT22;8206;51.440;6.914;2023-05-27T07:06:11;20.30;99.90
16198;DHT22;8206;51.440;6.914;2023-05-27T07:08:38;20.10;99.90
16198;DHT22;8206;51.440;6.914;2023-05-27T07:11:04;19.50;99.90
16198;DHT22;8206;51.440;6.914;2023-05-27T07:13:31;19.20;99.90
16198;DHT22;8206;51.440;6.914;2023-05-27T07:15:58;18.50;99.90
16198;DHT22;8206;51.440;6.914;2023-05-27T07:18:25;17.80;99.90
16198;DHT22;8206;51.440;6.914;2023-05-27T07:20:51;17.60;99.90
16198;DHT22;8206;51.440;6.914;2023-05-27T07:23:20;17.40;99.90
16198;DHT22;8206;51.440;6.914;2023-05-27T07:25:46;17.20;99.90
16198;DHT22;8206;51.440;6.914;2023-05-27T07:28:13;16.90;99.90
16198;DHT22;8206;51.440;6.914;2023-05-27T07:30:40;16.70;99.90
16198;DHT22;8206;51.440;6.914;2023-05-27T07:33:06;16.80;99.90
16198;DHT22;8206;51.440;6.914;2023-05-27T07:35:33;16.90;99.90
16198;DHT22;8206;51.440;6.914;2023-05-27T07:38:00;16.60;99.90
16198;DHT22;8206;51.440;6.914;2023-05-27T07:40:29;16.50;99.90
16198;DHT22;8206;51.440;6.914;2023-05-27T07:42:56;16.40;99.90
16198;DHT22;8206;51.440;6.914;2023-05-27T07:45:22;16.40;99.90
16198;DHT22;8206;51.440;6.914;2023-05-27T07:47:49;16.50;99.90
16198;DHT22;8206;51.440;6.914;2023-05-27T07:50:16;16.40;99.90
16198;DHT22;8206;51.440;6.914;2023-05-27T07:52:43;16.30;99.90
16198;DHT22;8206;51.440;6.914;2023-05-27T07:55:09;16.40;99.90
16198;DHT22;8206;51.440;6.914;2023-05-27T07:57:37;16.50;99.90
16198;DHT22;8206;51.440;6.914;2023-05-27T08:00:05;16.60;99.90
16198;DHT22;8206;51.440;6.914;2023-05-27T08:02:32;16.60;99.90
16198;DHT22;8206;51.440;6.914;2023-05-27T08:04:59;16.70;99.90
16198;DHT22;8206;51.440;6.914;2023-05-27T08:07:25;16.70;99.90
16198;DHT22;8206;51.440;6.914;2023-05-27T08:09:52;16.70;99.90
16198;DHT22;8206;51.440;6.914;2023-05-27T08:12:19;16.70;99.90
16198;DHT22;8206;51.440;6.914;2023-05-27T08:14:48;16.70;99.90
16198;DHT22;8206;51.440;6.914;2023-05-27T08:17:15;16.90;99.90
16198;DHT22;8206;51.440;6.914;2023-05-27T08:19:41;17.00;99.90
16198;DHT22;8206;51.440;6.914;2023-05-27T08:22:08;17.10;99.90
16198;DHT22;8206;51.440;6.914;2023-05-27T08:24:35;17.00;99.90
16198;DHT22;8206;51.440;6.914;2023-05-27T08:27:02;17.10;99.90
16198;DHT22;8206;51.440;6.914;2023-05-27T08:29:31;17.30;99.90
16198;DHT22;8206;51.440;6.914;2023-05-27T08:31:59;17.20;99.90
16198;DHT22;8206;51.440;6.914;2023-05-27T08:34:26;17.40;99.90
16198;DHT22;8206;51.440;6.914;2023-05-27T08:36:52;17.50;99.90
16198;DHT22;8206;51.440;6.914;2023-05-27T08:39:19;17.60;99.90
16198;DHT22;8206;51.440;6.914;2023-05-27T08:41:46;17.70;99.90
16198;DHT22;8206;51.440;6.914;2023-05-27T08:44:13;17.70;99.90
16198;DHT22;8206;51.440;6.914;2023-05-27T08:46:40;17.90;99.90
16198;DHT22;8206;51.440;6.914;2023-05-27T08:49:09;17.90;99.90
16198;DHT22;8206;51.440;6.914;2023-05-27T08:51:38;18.00;99.90
16198;DHT22;8206;51.440;6.914;2023-05-27T08:54:05;18.10;99.90
16198;DHT22;8206;51.440;6.914;2023-05-27T08:56:35;18.20;99.90
16198;DHT22;8206;51.440;6.914;2023-05-27T08:59:02;18.30;99.90
16198;DHT22;8206;51.440;6.914;2023-05-27T09:01:29;18.40;99.90
16198;DHT22;8206;51.440;6.914;2023-05-27T09:03:57;18.40;99.90
16198;DHT22;8206;51.440;6.914;2023-05-27T09:06:25;18.50;99.90
16198;DHT22;8206;51.440;6.914;2023-05-27T09:08:51;18.60;99.90
16198;DHT22;8206;51.440;6.914;2023-05-27T09:11:20;18.60;99.90
16198;DHT22;8206;51.440;6.914;2023-05-27T09:13:47;18.60;99.90
16198;DHT22;8206;51.440;6.914;2023-05-27T09:16:13;18.80;99.90
16198;DHT22;8206;51.440;6.914;2023-05-27T09:18:41;18.60;99.90
16198;DHT22;8206;51.440;6.914;2023-05-27T09:21:08;18.60;99.90
16198;DHT22;8206;51.440;6.914;2023-05-27T09:23:38;18.70;99.90
16198;DHT22;8206;51.440;6.914;2023-05-27T09:26:07;18.80;99.90
16198;DHT22;8206;51.440;6.914;2023-05-27T09:28:35;18.80;99.90
16198;DHT22;8206;51.440;6.914;2023-05-27T09:31:04;19.00;99.90
16198;DHT22;8206;51.440;6.914;2023-05-27T09:33:32;19.00;99.90
16198;DHT22;8206;51.440;6.914;2023-05-27T09:35:58;19.10;99.90
16198;DHT22;8206;51.440;6.914;2023-05-27T09:38:28;19.20;99.90
16198;DHT22;8206;51.440;6.914;2023-05-27T09:40:56;19.10;99.90
16198;DHT22;8206;51.440;6.914;2023-05-27T09:43:23;19.00;99.90
16198;DHT22;8206;51.440;6.914;2023-05-27T09:45:52;19.10;99.90
16198;DHT22;8206;51.440;6.914;2023-05-27T09:48:19;19.20;99.90
16198;DHT22;8206;51.440;6.914;2023-05-27T09:50:46;19.30;99.90
16198;DHT22;8206;51.440;6.914;2023-05-27T09:53:14;19.40;99.90
16198;DHT22;8206;51.440;6.914;2023-05-27T09:55:41;19.60;99.90
16198;DHT22;8206;51.440;6.914;2023-05-27T09:58:11;19.60;99.90
16198;DHT22;8206;51.440;6.914;2023-05-27T10:00:38;19.60;99.90
16198;DHT22;8206;51.440;6.914;2023-05-27T10:03:07;19.70;99.90
16198;DHT22;8206;51.440;6.914;2023-05-27T10:05:36;19.90;99.90
16198;DHT22;8206;51.440;6.914;2023-05-27T10:08:03;20.10;99.90
16198;DHT22;8206;51.440;6.914;2023-05-27T10:10:29;20.20;99.90
16198;DHT22;8206;51.440;6.914;2023-05-27T10:12:57;20.20;99.90
16198;DHT22;8206;51.440;6.914;2023-05-27T10:15:27;20.00;99.90
16198;DHT22;8206;51.440;6.914;2023-05-27T10:17:55;20.00;99.90
16198;DHT22;8206;51.440;6.914;2023-05-27T10:20:29;20.00;99.90
16198;DHT22;8206;51.440;6.914;2023-05-27T10:22:57;20.10;99.90
16198;DHT22;8206;51.440;6.914;2023-05-27T10:25:38;20.30;99.90
16198;DHT22;8206;51.440;6.914;2023-05-27T10:28:05;20.40;99.90
16198;DHT22;8206;51.440;6.914;2023-05-27T10:30:43;20.30;99.90
16198;DHT22;8206;51.440;6.914;2023-05-27T10:33:11;20.30;99.90
16198;DHT22;8206;51.440;6.914;2023-05-27T10:35:41;20.20;99.90
16198;DHT22;8206;51.440;6.914;2023-05-27T10:38:15;20.10;99.90
16198;DHT22;8206;51.440;6.914;2023-05-27T10:40:43;20.00;99.90
16198;DHT22;8206;51.440;6.914;2023-05-27T10:43:18;20.10;99.90
16198;DHT22;8206;51.440;6.914;2023-05-27T10:45:46;20.10;99.90
16198;DHT22;8206;51.440;6.914;2023-05-27T10:48:17;20.30;99.90
16198;DHT22;8206;51.440;6.914;2023-05-27T10:50:51;20.50;99.90
16198;DHT22;8206;51.440;6.914;2023-05-27T10:53:19;20.50;99.90
16198;DHT22;8206;51.440;6.914;2023-05-27T10:55:47;20.70;99.90
16198;DHT22;8206;51.440;6.914;2023-05-27T10:58:16;20.80;99.90
16198;DHT22;8206;51.440;6.914;2023-05-27T11:00:45;20.80;99.90
16198;DHT22;8206;51.440;6.914;2023-05-27T11:03:17;20.70;99.90
16198;DHT22;8206;51.440;6.914;2023-05-27T11:05:45;20.60;99.90
16198;DHT22;8206;51.440;6.914;2023-05-27T11:08:12;20.50;99.90
16198;DHT22;8206;51.440;6.914;2023-05-27T11:10:40;20.50;99.90
16198;DHT22;8206;51.440;6.914;2023-05-27T11:13:07;20.50;99.90
16198;DHT22;8206;51.440;6.914;2023-05-27T11:15:34;20.70;99.90
16198;DHT22;8206;51.440;6.914;2023-05-27T11:18:03;20.60;99.90
16198;DHT22;8206;51.440;6.914;2023-05-27T11:20:36;20.60;99.90
16198;DHT22;8206;51.440;6.914;2023-05-27T11:23:03;20.60;99.90
16198;DHT22;8206;51.440;6.914;2023-05-27T11:25:41;20.70;99.90
16198;DHT22;8206;51.440;6.914;2023-05-27T11:30:35;20.70;99.90
16198;DHT22;8206;51.440;6.914;2023-05-27T11:33:03;20.80;99.90
16198;DHT22;8206;51.440;6.914;2023-05-27T11:35:30;21.00;99.90
16198;DHT22;8206;51.440;6.914;2023-05-27T11:37:57;21.00;99.90
16198;DHT22;8206;51.440;6.914;2023-05-27T11:40:23;21.00;99.90
16198;DHT22;8206;51.440;6.914;2023-05-27T11:42:51;20.90;99.90
16198;DHT22;8206;51.440;6.914;2023-05-27T11:45:19;20.80;99.90
16198;DHT22;8206;51.440;6.914;2023-05-27T11:47:46;20.90;99.90
16198;DHT22;8206;51.440;6.914;2023-05-27T11:50:17;21.10;99.90
16198;DHT22;8206;51.440;6.914;2023-05-27T11:52:52;21.00;99.90
16198;DHT22;8206;51.440;6.914;2023-05-27T11:55:18;21.10;99.90
16198;DHT22;8206;51.440;6.914;2023-05-27T11:57:45;21.00;99.90
16198;DHT22;8206;51.440;6.914;2023-05-27T12:00:13;21.00;99.90
16198;DHT22;8206;51.440;6.914;2023-05-27T12:02:41;21.00;99.90
16198;DHT22;8206;51.440;6.914;2023-05-27T12:05:08;21.20;99.90
16198;DHT22;8206;51.440;6.914;2023-05-27T12:07:36;21.10;99.90
16198;DHT22;8206;51.440;6.914;2023-05-27T12:10:07;21.20;99.90
16198;DHT22;8206;51.440;6.914;2023-05-27T12:12:34;21.20;99.90
16198;DHT22;8206;51.440;6.914;2023-05-27T12:15:00;21.20;99.90
16198;DHT22;8206;51.440;6.914;2023-05-27T12:17:27;21.20;99.90
16198;DHT22;8206;51.440;6.914;2023-05-27T12:19:54;21.20;99.90
16198;DHT22;8206;51.440;6.914;2023-05-27T12:22:20;21.10;99.90
16198;DHT22;8206;51.440;6.914;2023-05-27T12:24:50;21.10;99.90
16198;DHT22;8206;51.440;6.914;2023-05-27T12:27:18;21.30;99.90
16198;DHT22;8206;51.440;6.914;2023-05-27T12:29:44;21.40;99.90
16198;DHT22;8206;51.440;6.914;2023-05-27T12:32:12;21.50;99.90
16198;DHT22;8206;51.440;6.914;2023-05-27T12:34:39;21.50;99.90
16198;DHT22;8206;51.440;6.914;2023-05-27T12:37:05;21.50;99.90
16198;DHT22;8206;51.440;6.914;2023-05-27T12:39:32;21.60;99.90
16198;DHT22;8206;51.440;6.914;2023-05-27T12:42:00;21.50;99.90
16198;DHT22;8206;51.440;6.914;2023-05-27T12:44:27;21.50;99.90
16198;DHT22;8206;51.440;6.914;2023-05-27T12:46:54;21.70;99.90
16198;DHT22;8206;51.440;6.914;2023-05-27T12:49:21;21.80;99.90
16198;DHT22;8206;51.440;6.914;2023-05-27T12:51:47;21.70;99.90
16198;DHT22;8206;51.440;6.914;2023-05-27T12:54:14;21.60;99.90
16198;DHT22;8206;51.440;6.914;2023-05-27T12:56:41;21.50;99.90
16198;DHT22;8206;51.440;6.914;2023-05-27T12:59:09;21.50;99.90
16198;DHT22;8206;51.440;6.914;2023-05-27T13:01:35;21.80;99.90
16198;DHT22;8206;51.440;6.914;2023-05-27T13:04:02;21.80;99.90
16198;DHT22;8206;51.440;6.914;2023-05-27T13:06:29;21.90;99.90
16198;DHT22;8206;51.440;6.914;2023-05-27T13:08:56;22.00;99.90
16198;DHT22;8206;51.440;6.914;2023-05-27T13:11:22;22.00;99.90
16198;DHT22;8206;51.440;6.914;2023-05-27T13:13:49;21.90;99.90
16198;DHT22;8206;51.440;6.914;2023-05-27T13:16:17;21.90;99.90
16198;DHT22;8206;51.440;6.914;2023-05-27T13:18:44;22.00;99.90
16198;DHT22;8206;51.440;6.914;2023-05-27T13:21:10;22.10;99.90
16198;DHT22;8206;51.440;6.914;2023-05-27T13:23:37;22.00;99.90
16198;DHT22;8206;51.440;6.914;2023-05-27T13:26:04;22.00;99.90
16198;DHT22;8206;51.440;6.914;2023-05-27T13:28:31;22.10;99.90
16198;DHT22;8206;51.440;6.914;2023-05-27T13:30:58;22.20;99.90
16198;DHT22;8206;51.440;6.914;2023-05-27T13:33:26;22.10;99.90
16198;DHT22;8206;51.440;6.914;2023-05-27T13:35:52;22.00;99.90
16198;DHT22;8206;51.440;6.914;2023-05-27T13:38:19;22.00;99.90
16198;DHT22;8206;51.440;6.914;2023-05-27T13:40:46;21.90;99.90
16198;DHT22;8206;51.440;6.914;2023-05-27T13:43:12;22.10;99.90
16198;DHT22;8206;51.440;6.914;2023-05-27T13:45:39;22.20;99.90
16198;DHT22;8206;51.440;6.914;2023-05-27T13:48:06;22.30;99.90
16198;DHT22;8206;51.440;6.914;2023-05-27T13:50:34;22.30;99.90
16198;DHT22;8206;51.440;6.914;2023-05-27T13:53:01;22.40;99.90
16198;DHT22;8206;51.440;6.914;2023-05-27T13:55:28;22.50;99.90
16198;DHT22;8206;51.440;6.914;2023-05-27T13:57:55;22.50;99.90
16198;DHT22;8206;51.440;6.914;2023-05-27T14:00:21;22.50;99.90
16198;DHT22;8206;51.440;6.914;2023-05-27T14:02:48;22.50;99.90
16198;DHT22;8206;51.440;6.914;2023-05-27T14:05:15;22.50;99.90
16198;DHT22;8206;51.440;6.914;2023-05-27T14:07:44;22.60;99.90
16198;DHT22;8206;51.440;6.914;2023-05-27T14:10:12;22.60;99.90
16198;DHT22;8206;51.440;6.914;2023-05-27T14:12:39;22.50;99.90
16198;DHT22;8206;51.440;6.914;2023-05-27T14:15:06;22.50;99.90
16198;DHT22;8206;51.440;6.914;2023-05-27T14:17:33;22.60;99.90
16198;DHT22;8206;51.440;6.914;2023-05-27T14:20:00;22.50;99.90
16198;DHT22;8206;51.440;6.914;2023-05-27T14:22:26;22.50;99.90
16198;DHT22;8206;51.440;6.914;2023-05-27T14:24:54;22.60;99.90
16198;DHT22;8206;51.440;6.914;2023-05-27T14:27:21;22.60;99.90
16198;DHT22;8206;51.440;6.914;2023-05-27T14:29:47;22.60;99.90
16198;DHT22;8206;51.440;6.914;2023-05-27T14:32:14;22.60;99.90
16198;DHT22;8206;51.440;6.914;2023-05-27T14:34:41;22.60;99.90
16198;DHT22;8206;51.440;6.914;2023-05-27T14:37:07;22.70;99.90
16198;DHT22;8206;51.440;6.914;2023-05-27T14:39:34;22.80;99.90
16198;DHT22;8206;51.440;6.914;2023-05-27T14:42:02;22.90;99.90
16198;DHT22;8206;51.440;6.914;2023-05-27T14:44:31;23.00;99.90
16198;DHT22;8206;51.440;6.914;2023-05-27T14:46:58;23.10;99.90
16198;DHT22;8206;51.440;6.914;2023-05-27T14:49:25;23.00;99.90
16198;DHT22;8206;51.440;6.914;2023-05-27T14:51:52;23.10;99.90
16198;DHT22;8206;51.440;6.914;2023-05-27T14:54:18;23.00;99.90
16198;DHT22;8206;51.440;6.914;2023-05-27T14:56:46;22.90;99.90
16198;DHT22;8206;51.440;6.914;2023-05-27T14:59:14;22.90;99.90
16198;DHT22;8206;51.440;6.914;2023-05-27T15:01:41;22.90;99.90
16198;DHT22;8206;51.440;6.914;2023-05-27T15:04:08;22.80;99.90
16198;DHT22;8206;51.440;6.914;2023-05-27T15:06:35;22.80;99.90
16198;DHT22;8206;51.440;6.914;2023-05-27T15:09:02;22.90;99.90
16198;DHT22;8206;51.440;6.914;2023-05-27T15:11:29;22.90;99.90
16198;DHT22;8206;51.440;6.914;2023-05-27T15:13:56;23.00;99.90
16198;DHT22;8206;51.440;6.914;2023-05-27T15:16:26;23.10;99.90
16198;DHT22;8206;51.440;6.914;2023-05-27T15:18:53;23.10;99.90
16198;DHT22;8206;51.440;6.914;2023-05-27T15:21:20;23.10;99.90
16198;DHT22;8206;51.440;6.914;2023-05-27T15:23:47;23.00;99.90
16198;DHT22;8206;51.440;6.914;2023-05-27T15:26:14;22.90;99.90
16198;DHT22;8206;51.440;6.914;2023-05-27T15:28:40;23.00;99.90
16198;DHT22;8206;51.440;6.914;2023-05-27T15:31:07;23.10;99.90
16198;DHT22;8206;51.440;6.914;2023-05-27T15:33:35;23.10;99.90
16198;DHT22;8206;51.440;6.914;2023-05-27T15:36:02;23.10;99.90
16198;DHT22;8206;51.440;6.914;2023-05-27T15:38:30;23.10;99.90
16198;DHT22;8206;51.440;6.914;2023-05-27T15:40:57;23.10;99.90
16198;DHT22;8206;51.440;6.914;2023-05-27T15:43:23;23.20;99.90
16198;DHT22;8206;51.440;6.914;2023-05-27T15:45:50;23.20;99.90
16198;DHT22;8206;51.440;6.914;2023-05-27T15:48:17;23.20;99.90
16198;DHT22;8206;51.440;6.914;2023-05-27T15:50:44;23.10;99.90
16198;DHT22;8206;51.440;6.914;2023-05-27T15:53:14;23.10;99.90
16198;DHT22;8206;51.440;6.914;2023-05-27T15:55:40;23.10;99.90
16198;DHT22;8206;51.440;6.914;2023-05-27T15:58:07;23.20;99.90